Lake Worth, FL (33460)

12:31 PM EDT on July 29, 2016 (GMT -0400)
Lake Clarke Shores - Caribbean Rd. East | | Change Station

Elev 16 ft 26.63 °N, 80.07 °W | Updated 7 seconds ago

Overcast
Overcast
84.9 °F
Feels Like 92 °F
N
8.1
Wind Variable Wind from East
Gusts 8.1 mph

Today
High -- | Low -- °F
--% Chance of Precip.
Yesterday
High -- | Low -- °F
Precip. -- in
Pressure 30.08 in
Visibility 10.0 miles
Clouds Scattered Clouds 3300 ft
Mostly Cloudy 4900 ft
Mostly Cloudy 6000 ft
Heat Index 92 °F
Dew Point 74 °F
Humidity 70%
Rainfall 0.00 in
Snow Depth Not available.
6:43 AM 8:09 PM
Waning Crescent, 21% visible
SPECI KPBI 291628Z 17010KT 10SM TS SCT033CB BKN049 BKN060 30/23 A3008 RMK AO2 RAE1558 TSB28 OCNL LTGICCG OHD-S-SW TS OHD-S-SW MOV N P0000 T03000233 $
Pressure 30.08 in
Visibility 10.0 miles
Clouds Scattered Clouds 3300 ft
Mostly Cloudy 4900 ft
Mostly Cloudy 6000 ft
Heat Index 92 °F
Dew Point 74 °F
Humidity 70%
Rainfall 0.00 in
Snow Depth Not available.
6:43 AM 8:09 PM
Waning Crescent, 21% visible
SPECI KPBI 291628Z 17010KT 10SM TS SCT033CB BKN049 BKN060 30/23 A3008 RMK AO2 RAE1558 TSB28 OCNL LTGICCG OHD-S-SW TS OHD-S-SW MOV N P0000 T03000233 $

10-Day Weather Forecast

Almanac

Astronomy

Jul. 29, 2016 Rise Set
Actual Time
Civil Twilight
Nautical Twilight
Astronomical Twilight
Moon
Length of Visible Light
Length of Day
Tomorrow will be .
, % of the Moon is Illuminated

Today's Extremes

State Highs State Lows

Community

WunderPhotos

Upload Photos

1,928,367 photos uploaded!

WunderBlog® & News

Nearby

Air Quality

  Air Quality AQ Index Pollutant
Not available.

Snow Depth

Station Depth Elevation

Earthquake Activity

City Distance Mag. Time & Date
Minimum magnitude displayed is 2.5.

Coastal Water Temperatures

Place Temperature

Stations

Nearby Weather Stations

Station Location Temp. Windchill Dew Point Humidity Wind Precip. Elev Updated Type
                   

Watches & Warnings

There are currently no watches in effect.